Ana Sayfa
METAR-TAF:

METAR-TAF

Havaalanları :

Dallas / Addison, Teksas, Amerika Birleşik Devletleri

Enlem: 32-58N, Boylam: 096-50W, yükseklik: 196 m

Güncel hava durumu gözlemi

Rapor saat 14:48 UTC de 25 dakika önce yapıldı.
Rüzgar güney/güneydoğudan 9 kt
Sıcaklık 31°C
Nem 66%
Basınç 1015 hPa
Görüş mesafesi: 20.9 km
1600 ft yükseklikte parçalı çok bulutlu

METAR: KADS 251448Z COR 16009KT 13SM BKN016 31/24 A2997

Saat: 10:13 (15:13 UTC)


TAF: eksik

4.000'den fazla havaalanı için hava durumu gözlemleri ve tahminleri (METAR ve TAF raporları).

Kullanılabilir istasyonlar harita üzerinde sarı ve kırmızı noktalarla gösterilir.

İstasyonun adını görmek için fareyi noktanın üzerinde gezdirin.

Sonrasında hava gözlem ve tahminlerini görmek için tıklayın.

Haritayı değiştirmek için: yaklaştırmak için siyah artı işaretli yeşil düğmeye ve uzaklaştırmak için de eksi işaretli düğmeye hızla tıklayın; bitişik haritalar için yeşil okları kullanın.


METAR-TAF: